sensor_id;sensor_type;location;lat;lon;timestamp;temperature;humidity
1083;DHT22;530;51.448;7.238;2024-03-23T00:54:15;10.00;99.90
1083;DHT22;530;51.448;7.238;2024-03-23T00:56:41;9.90;99.90
1083;DHT22;530;51.448;7.238;2024-03-23T00:59:07;9.90;99.90
1083;DHT22;530;51.448;7.238;2024-03-23T01:01:32;9.90;99.90
1083;DHT22;530;51.448;7.238;2024-03-23T01:03:58;9.90;99.90
1083;DHT22;530;51.448;7.238;2024-03-23T01:06:24;9.90;99.90
1083;DHT22;530;51.448;7.238;2024-03-23T01:08:50;9.90;99.90
1083;DHT22;530;51.448;7.238;2024-03-23T01:11:16;9.90;99.90
1083;DHT22;530;51.448;7.238;2024-03-23T01:13:41;9.90;99.90
1083;DHT22;530;51.448;7.238;2024-03-23T01:16:07;9.80;99.90
1083;DHT22;530;51.448;7.238;2024-03-23T01:18:33;9.80;99.90
1083;DHT22;530;51.448;7.238;2024-03-23T01:20:58;9.80;99.90
1083;DHT22;530;51.448;7.238;2024-03-23T01:23:24;9.80;99.90
1083;DHT22;530;51.448;7.238;2024-03-23T01:25:53;9.80;99.90
1083;DHT22;530;51.448;7.238;2024-03-23T01:28:20;9.80;99.90
1083;DHT22;530;51.448;7.238;2024-03-23T01:30:47;9.70;99.90
1083;DHT22;530;51.448;7.238;2024-03-23T01:33:12;9.80;99.90
1083;DHT22;530;51.448;7.238;2024-03-23T01:35:38;9.70;99.90
1083;DHT22;530;51.448;7.238;2024-03-23T01:38:04;9.70;99.90
1083;DHT22;530;51.448;7.238;2024-03-23T01:40:30;9.60;99.90
1083;DHT22;530;51.448;7.238;2024-03-23T01:43:04;9.60;99.90
1083;DHT22;530;51.448;7.238;2024-03-23T01:45:34;9.60;99.90
1083;DHT22;530;51.448;7.238;2024-03-23T01:48:00;9.60;99.90
1083;DHT22;530;51.448;7.238;2024-03-23T01:50:26;9.50;99.90
1083;DHT22;530;51.448;7.238;2024-03-23T01:52:53;9.50;99.90
1083;DHT22;530;51.448;7.238;2024-03-23T01:55:19;9.60;99.90
1083;DHT22;530;51.448;7.238;2024-03-23T01:57:45;9.50;99.90
1083;DHT22;530;51.448;7.238;2024-03-23T02:00:12;9.50;99.90
1083;DHT22;530;51.448;7.238;2024-03-23T02:02:44;9.50;99.90
1083;DHT22;530;51.448;7.238;2024-03-23T02:05:11;9.50;99.90
1083;DHT22;530;51.448;7.238;2024-03-23T02:07:41;9.50;99.90
1083;DHT22;530;51.448;7.238;2024-03-23T02:10:09;9.40;99.90
1083;DHT22;530;51.448;7.238;2024-03-23T02:12:36;9.40;99.90
1083;DHT22;530;51.448;7.238;2024-03-23T02:15:02;9.40;99.90
1083;DHT22;530;51.448;7.238;2024-03-23T02:17:30;9.40;99.90
1083;DHT22;530;51.448;7.238;2024-03-23T02:19:56;9.30;99.90
1083;DHT22;530;51.448;7.238;2024-03-23T02:22:22;9.30;99.90
1083;DHT22;530;51.448;7.238;2024-03-23T02:24:47;9.30;99.90
1083;DHT22;530;51.448;7.238;2024-03-23T02:27:13;9.30;99.90
1083;DHT22;530;51.448;7.238;2024-03-23T02:29:39;9.30;99.90
1083;DHT22;530;51.448;7.238;2024-03-23T02:32:05;9.30;99.90
1083;DHT22;530;51.448;7.238;2024-03-23T02:34:31;9.20;99.90
1083;DHT22;530;51.448;7.238;2024-03-23T02:36:57;9.20;99.90
1083;DHT22;530;51.448;7.238;2024-03-23T02:39:22;9.20;99.90
1083;DHT22;530;51.448;7.238;2024-03-23T02:41:48;9.10;99.90
1083;DHT22;530;51.448;7.238;2024-03-23T02:44:14;9.10;99.90
1083;DHT22;530;51.448;7.238;2024-03-23T02:46:40;9.10;99.90
1083;DHT22;530;51.448;7.238;2024-03-23T02:49:06;9.10;99.90
1083;DHT22;530;51.448;7.238;2024-03-23T02:51:31;9.10;99.90
1083;DHT22;530;51.448;7.238;2024-03-23T02:53:57;9.10;99.90
1083;DHT22;530;51.448;7.238;2024-03-23T02:56:23;9.10;99.90
1083;DHT22;530;51.448;7.238;2024-03-23T02:58:48;9.00;99.90
1083;DHT22;530;51.448;7.238;2024-03-23T03:01:14;9.00;99.90
1083;DHT22;530;51.448;7.238;2024-03-23T03:03:40;9.00;99.90
1083;DHT22;530;51.448;7.238;2024-03-23T03:06:06;9.00;99.90
1083;DHT22;530;51.448;7.238;2024-03-23T03:08:31;9.00;99.90
1083;DHT22;530;51.448;7.238;2024-03-23T03:10:57;9.00;99.90
1083;DHT22;530;51.448;7.238;2024-03-23T03:13:23;9.00;99.90
1083;DHT22;530;51.448;7.238;2024-03-23T03:15:48;9.00;99.90
1083;DHT22;530;51.448;7.238;2024-03-23T03:18:14;9.00;99.90
1083;DHT22;530;51.448;7.238;2024-03-23T03:20:40;8.90;99.90
1083;DHT22;530;51.448;7.238;2024-03-23T03:23:06;8.90;99.90
1083;DHT22;530;51.448;7.238;2024-03-23T03:25:33;8.90;99.90
1083;DHT22;530;51.448;7.238;2024-03-23T03:27:58;8.90;99.90
1083;DHT22;530;51.448;7.238;2024-03-23T03:30:24;8.90;99.90
1083;DHT22;530;51.448;7.238;2024-03-23T03:32:54;8.80;99.90
1083;DHT22;530;51.448;7.238;2024-03-23T03:35:21;8.90;99.90
1083;DHT22;530;51.448;7.238;2024-03-23T03:37:46;8.80;99.90
1083;DHT22;530;51.448;7.238;2024-03-23T03:40:12;8.80;99.90
1083;DHT22;530;51.448;7.238;2024-03-23T03:42:40;8.80;99.90
1083;DHT22;530;51.448;7.238;2024-03-23T03:45:06;8.80;99.90
1083;DHT22;530;51.448;7.238;2024-03-23T03:47:32;8.80;99.90
1083;DHT22;530;51.448;7.238;2024-03-23T03:49:58;8.80;99.90
1083;DHT22;530;51.448;7.238;2024-03-23T03:52:23;8.80;99.90
1083;DHT22;530;51.448;7.238;2024-03-23T03:54:49;8.80;99.90
1083;DHT22;530;51.448;7.238;2024-03-23T03:57:15;8.70;99.90
1083;DHT22;530;51.448;7.238;2024-03-23T03:59:40;8.70;99.90
1083;DHT22;530;51.448;7.238;2024-03-23T04:02:06;8.70;99.90
1083;DHT22;530;51.448;7.238;2024-03-23T04:04:32;8.70;99.90
1083;DHT22;530;51.448;7.238;2024-03-23T04:07:01;8.70;99.90
1083;DHT22;530;51.448;7.238;2024-03-23T04:09:27;8.60;99.90
1083;DHT22;530;51.448;7.238;2024-03-23T04:11:53;8.60;99.90
1083;DHT22;530;51.448;7.238;2024-03-23T04:14:18;8.50;99.90
1083;DHT22;530;51.448;7.238;2024-03-23T04:16:44;8.50;99.90
1083;DHT22;530;51.448;7.238;2024-03-23T04:19:10;8.50;99.90
1083;DHT22;530;51.448;7.238;2024-03-23T04:21:37;8.50;99.90
1083;DHT22;530;51.448;7.238;2024-03-23T04:24:03;8.50;99.90
1083;DHT22;530;51.448;7.238;2024-03-23T04:26:29;8.50;99.90
1083;DHT22;530;51.448;7.238;2024-03-23T04:28:54;8.50;99.90
1083;DHT22;530;51.448;7.238;2024-03-23T04:31:20;8.50;99.90
1083;DHT22;530;51.448;7.238;2024-03-23T04:33:46;8.60;99.90
1083;DHT22;530;51.448;7.238;2024-03-23T04:36:11;8.60;99.90
1083;DHT22;530;51.448;7.238;2024-03-23T04:38:37;8.60;99.90
1083;DHT22;530;51.448;7.238;2024-03-23T04:41:03;8.50;99.90
1083;DHT22;530;51.448;7.238;2024-03-23T04:43:28;8.50;99.90
1083;DHT22;530;51.448;7.238;2024-03-23T04:45:55;8.50;99.90
1083;DHT22;530;51.448;7.238;2024-03-23T04:48:21;8.50;99.90
1083;DHT22;530;51.448;7.238;2024-03-23T04:50:54;8.50;99.90
1083;DHT22;530;51.448;7.238;2024-03-23T04:53:20;8.50;99.90
1083;DHT22;530;51.448;7.238;2024-03-23T04:55:46;8.50;99.90
1083;DHT22;530;51.448;7.238;2024-03-23T04:58:11;8.50;99.90
1083;DHT22;530;51.448;7.238;2024-03-23T05:00:37;8.50;99.90
1083;DHT22;530;51.448;7.238;2024-03-23T05:03:03;8.50;99.90
1083;DHT22;530;51.448;7.238;2024-03-23T05:05:29;8.40;99.90
1083;DHT22;530;51.448;7.238;2024-03-23T05:07:55;8.40;99.90
1083;DHT22;530;51.448;7.238;2024-03-23T05:10:21;8.40;99.90
1083;DHT22;530;51.448;7.238;2024-03-23T05:12:46;8.50;99.90
1083;DHT22;530;51.448;7.238;2024-03-23T05:15:12;8.40;99.90
1083;DHT22;530;51.448;7.238;2024-03-23T05:17:38;8.40;99.90
1083;DHT22;530;51.448;7.238;2024-03-23T05:20:04;8.40;99.90
1083;DHT22;530;51.448;7.238;2024-03-23T05:22:30;8.40;99.90
1083;DHT22;530;51.448;7.238;2024-03-23T05:24:56;8.40;99.90
1083;DHT22;530;51.448;7.238;2024-03-23T05:27:22;8.40;99.90
1083;DHT22;530;51.448;7.238;2024-03-23T05:29:48;8.40;99.90
1083;DHT22;530;51.448;7.238;2024-03-23T05:32:14;8.30;99.90
1083;DHT22;530;51.448;7.238;2024-03-23T05:34:39;8.30;99.90
1083;DHT22;530;51.448;7.238;2024-03-23T05:37:05;8.30;99.90
1083;DHT22;530;51.448;7.238;2024-03-23T05:39:31;8.30;99.90
1083;DHT22;530;51.448;7.238;2024-03-23T05:41:57;8.20;99.90
1083;DHT22;530;51.448;7.238;2024-03-23T05:44:22;8.20;99.90
1083;DHT22;530;51.448;7.238;2024-03-23T05:46:48;8.20;99.90
1083;DHT22;530;51.448;7.238;2024-03-23T05:49:15;8.20;99.90
1083;DHT22;530;51.448;7.238;2024-03-23T05:51:41;8.20;99.90
1083;DHT22;530;51.448;7.238;2024-03-23T05:54:07;8.20;99.90
1083;DHT22;530;51.448;7.238;2024-03-23T05:56:32;8.20;99.90
1083;DHT22;530;51.448;7.238;2024-03-23T05:58:58;8.20;99.90
1083;DHT22;530;51.448;7.238;2024-03-23T06:01:24;8.10;99.90
1083;DHT22;530;51.448;7.238;2024-03-23T06:03:50;8.20;99.90
1083;DHT22;530;51.448;7.238;2024-03-23T06:06:16;8.10;99.90
1083;DHT22;530;51.448;7.238;2024-03-23T06:08:42;8.10;99.90
1083;DHT22;530;51.448;7.238;2024-03-23T06:11:07;8.00;99.90
1083;DHT22;530;51.448;7.238;2024-03-23T06:13:33;8.10;99.90
1083;DHT22;530;51.448;7.238;2024-03-23T06:16:01;8.10;99.90
1083;DHT22;530;51.448;7.238;2024-03-23T06:18:26;8.10;99.90
1083;DHT22;530;51.448;7.238;2024-03-23T06:20:53;8.20;99.90
1083;DHT22;530;51.448;7.238;2024-03-23T06:23:19;8.20;99.90
1083;DHT22;530;51.448;7.238;2024-03-23T06:25:46;8.20;99.90
1083;DHT22;530;51.448;7.238;2024-03-23T06:28:12;8.30;99.90
1083;DHT22;530;51.448;7.238;2024-03-23T06:30:38;8.30;99.90
1083;DHT22;530;51.448;7.238;2024-03-23T06:33:03;8.30;99.90
1083;DHT22;530;51.448;7.238;2024-03-23T06:35:31;8.30;99.90
1083;DHT22;530;51.448;7.238;2024-03-23T06:37:56;8.40;99.90
1083;DHT22;530;51.448;7.238;2024-03-23T06:40:23;8.30;99.90
1083;DHT22;530;51.448;7.238;2024-03-23T06:42:49;8.30;99.90
1083;DHT22;530;51.448;7.238;2024-03-23T06:45:16;8.30;99.90
1083;DHT22;530;51.448;7.238;2024-03-23T06:47:41;8.40;99.90
1083;DHT22;530;51.448;7.238;2024-03-23T06:50:07;8.30;99.90
1083;DHT22;530;51.448;7.238;2024-03-23T06:52:33;8.40;99.90
1083;DHT22;530;51.448;7.238;2024-03-23T06:54:58;8.40;99.90
1083;DHT22;530;51.448;7.238;2024-03-23T06:57:24;8.40;99.90
1083;DHT22;530;51.448;7.238;2024-03-23T06:59:50;8.40;99.90
1083;DHT22;530;51.448;7.238;2024-03-23T07:02:16;8.40;99.90
1083;DHT22;530;51.448;7.238;2024-03-23T07:04:42;8.40;99.90
1083;DHT22;530;51.448;7.238;2024-03-23T07:07:07;8.50;99.90
1083;DHT22;530;51.448;7.238;2024-03-23T07:09:33;8.50;99.90
1083;DHT22;530;51.448;7.238;2024-03-23T07:11:59;8.60;99.90
1083;DHT22;530;51.448;7.238;2024-03-23T07:14:25;8.60;99.90
1083;DHT22;530;51.448;7.238;2024-03-23T07:16:51;8.60;99.90
1083;DHT22;530;51.448;7.238;2024-03-23T07:19:17;8.70;99.90
1083;DHT22;530;51.448;7.238;2024-03-23T07:21:43;8.80;99.90
1083;DHT22;530;51.448;7.238;2024-03-23T07:24:09;8.80;99.90
1083;DHT22;530;51.448;7.238;2024-03-23T07:26:36;8.90;99.90
1083;DHT22;530;51.448;7.238;2024-03-23T07:29:03;9.00;99.90
1083;DHT22;530;51.448;7.238;2024-03-23T07:31:29;9.10;99.90
1083;DHT22;530;51.448;7.238;2024-03-23T07:33:54;9.10;99.90
1083;DHT22;530;51.448;7.238;2024-03-23T07:36:20;9.20;99.90
1083;DHT22;530;51.448;7.238;2024-03-23T07:38:46;9.20;99.90
1083;DHT22;530;51.448;7.238;2024-03-23T07:41:15;9.30;99.90
1083;DHT22;530;51.448;7.238;2024-03-23T07:43:45;9.30;99.90
1083;DHT22;530;51.448;7.238;2024-03-23T07:46:11;9.40;99.90
1083;DHT22;530;51.448;7.238;2024-03-23T07:48:38;9.50;99.90
1083;DHT22;530;51.448;7.238;2024-03-23T07:51:25;9.50;99.90
1083;DHT22;530;51.448;7.238;2024-03-23T07:53:51;9.60;99.90
1083;DHT22;530;51.448;7.238;2024-03-23T07:56:18;9.70;99.90
1083;DHT22;530;51.448;7.238;2024-03-23T07:58:44;9.70;99.90
1083;DHT22;530;51.448;7.238;2024-03-23T08:01:11;9.80;99.90
1083;DHT22;530;51.448;7.238;2024-03-23T08:03:38;9.80;99.90
1083;DHT22;530;51.448;7.238;2024-03-23T08:08:40;10.10;99.90
1083;DHT22;530;51.448;7.238;2024-03-23T08:11:06;10.10;99.90
1083;DHT22;530;51.448;7.238;2024-03-23T08:13:33;10.10;99.90
1083;DHT22;530;51.448;7.238;2024-03-23T08:16:00;10.10;99.90
1083;DHT22;530;51.448;7.238;2024-03-23T08:18:26;10.20;99.90
1083;DHT22;530;51.448;7.238;2024-03-23T08:21:05;10.20;99.90
1083;DHT22;530;51.448;7.238;2024-03-23T08:23:32;10.30;99.90
1083;DHT22;530;51.448;7.238;2024-03-23T08:26:10;10.30;99.90
1083;DHT22;530;51.448;7.238;2024-03-23T08:28:37;10.30;99.90
1083;DHT22;530;51.448;7.238;2024-03-23T08:31:11;10.40;99.90
1083;DHT22;530;51.448;7.238;2024-03-23T08:33:37;10.40;99.90
1083;DHT22;530;51.448;7.238;2024-03-23T08:36:08;10.40;99.90
1083;DHT22;530;51.448;7.238;2024-03-23T08:38:34;10.40;99.90
1083;DHT22;530;51.448;7.238;2024-03-23T08:41:08;10.50;99.90
1083;DHT22;530;51.448;7.238;2024-03-23T08:43:41;10.50;99.90
1083;DHT22;530;51.448;7.238;2024-03-23T08:46:14;10.60;99.90
1083;DHT22;530;51.448;7.238;2024-03-23T08:48:45;10.50;99.90
1083;DHT22;530;51.448;7.238;2024-03-23T08:51:13;10.50;99.90
1083;DHT22;530;51.448;7.238;2024-03-23T08:53:39;10.40;99.90
1083;DHT22;530;51.448;7.238;2024-03-23T08:56:07;10.40;99.90
1083;DHT22;530;51.448;7.238;2024-03-23T08:58:33;10.30;99.90
1083;DHT22;530;51.448;7.238;2024-03-23T09:01:07;10.20;99.90
1083;DHT22;530;51.448;7.238;2024-03-23T09:03:33;10.30;99.90
1083;DHT22;530;51.448;7.238;2024-03-23T09:05:59;10.30;99.90
1083;DHT22;530;51.448;7.238;2024-03-23T09:08:25;10.20;99.90
1083;DHT22;530;51.448;7.238;2024-03-23T09:10:52;10.10;99.90
1083;DHT22;530;51.448;7.238;2024-03-23T09:13:18;10.10;99.90
1083;DHT22;530;51.448;7.238;2024-03-23T09:15:49;10.00;99.90
1083;DHT22;530;51.448;7.238;2024-03-23T09:18:15;10.00;99.90
1083;DHT22;530;51.448;7.238;2024-03-23T09:20:41;9.90;99.90
1083;DHT22;530;51.448;7.238;2024-03-23T09:23:07;9.50;99.90
1083;DHT22;530;51.448;7.238;2024-03-23T09:25:39;9.30;99.90
1083;DHT22;530;51.448;7.238;2024-03-23T09:28:05;8.90;99.90
1083;DHT22;530;51.448;7.238;2024-03-23T09:30:32;8.80;99.90
1083;DHT22;530;51.448;7.238;2024-03-23T09:32:59;8.50;99.90
1083;DHT22;530;51.448;7.238;2024-03-23T09:35:24;8.40;99.90
1083;DHT22;530;51.448;7.238;2024-03-23T09:37:50;8.30;99.90
1083;DHT22;530;51.448;7.238;2024-03-23T09:40:16;8.10;99.90
1083;DHT22;530;51.448;7.238;2024-03-23T09:42:42;8.20;99.90
1083;DHT22;530;51.448;7.238;2024-03-23T09:45:26;8.20;99.90
1083;DHT22;530;51.448;7.238;2024-03-23T09:47:52;8.30;99.90
1083;DHT22;530;51.448;7.238;2024-03-23T09:50:18;8.40;99.90
1083;DHT22;530;51.448;7.238;2024-03-23T09:52:46;8.70;99.90
1083;DHT22;530;51.448;7.238;2024-03-23T09:55:12;9.00;99.90
1083;DHT22;530;51.448;7.238;2024-03-23T09:57:37;9.20;99.90
1083;DHT22;530;51.448;7.238;2024-03-23T10:00:04;9.40;99.90
1083;DHT22;530;51.448;7.238;2024-03-23T10:02:30;9.60;99.90
1083;DHT22;530;51.448;7.238;2024-03-23T10:04:56;9.80;99.90
1083;DHT22;530;51.448;7.238;2024-03-23T10:07:23;10.00;99.90
1083;DHT22;530;51.448;7.238;2024-03-23T10:09:49;10.00;99.90
1083;DHT22;530;51.448;7.238;2024-03-23T10:12:19;10.20;99.90
1083;DHT22;530;51.448;7.238;2024-03-23T10:14:45;10.20;99.90
1083;DHT22;530;51.448;7.238;2024-03-23T10:19:44;10.70;99.90
1083;DHT22;530;51.448;7.238;2024-03-23T10:22:12;10.90;99.90
1083;DHT22;530;51.448;7.238;2024-03-23T10:24:38;11.10;99.90
1083;DHT22;530;51.448;7.238;2024-03-23T10:27:04;11.20;99.90
1083;DHT22;530;51.448;7.238;2024-03-23T10:29:30;11.20;99.90
1083;DHT22;530;51.448;7.238;2024-03-23T10:32:08;11.40;99.90
1083;DHT22;530;51.448;7.238;2024-03-23T10:34:34;11.50;99.90
1083;DHT22;530;51.448;7.238;2024-03-23T10:37:02;11.30;99.90
1083;DHT22;530;51.448;7.238;2024-03-23T10:39:37;11.30;99.90
1083;DHT22;530;51.448;7.238;2024-03-23T10:42:10;11.00;99.90
1083;DHT22;530;51.448;7.238;2024-03-23T10:44:36;11.10;99.90
1083;DHT22;530;51.448;7.238;2024-03-23T10:47:03;11.10;99.90
1083;DHT22;530;51.448;7.238;2024-03-23T10:49:30;11.30;99.90
1083;DHT22;530;51.448;7.238;2024-03-23T10:52:00;11.50;99.90
1083;DHT22;530;51.448;7.238;2024-03-23T10:54:26;11.70;99.90
1083;DHT22;530;51.448;7.238;2024-03-23T10:57:06;11.80;99.90
1083;DHT22;530;51.448;7.238;2024-03-23T10:59:35;11.80;99.90
1083;DHT22;530;51.448;7.238;2024-03-23T11:02:02;12.00;99.90
1083;DHT22;530;51.448;7.238;2024-03-23T11:04:34;11.90;99.90
1083;DHT22;530;51.448;7.238;2024-03-23T11:07:43;11.40;99.90
1083;DHT22;530;51.448;7.238;2024-03-23T11:09:59;10.70;99.90
1083;DHT22;530;51.448;7.238;2024-03-23T11:15:01;9.50;99.90
1083;DHT22;530;51.448;7.238;2024-03-23T11:17:27;8.80;99.90
1083;DHT22;530;51.448;7.238;2024-03-23T11:25:25;8.30;99.90
1083;DHT22;530;51.448;7.238;2024-03-23T11:27:56;8.20;99.90
1083;DHT22;530;51.448;7.238;2024-03-23T11:30:26;8.30;99.90
1083;DHT22;530;51.448;7.238;2024-03-23T11:32:56;8.70;99.90
1083;DHT22;530;51.448;7.238;2024-03-23T11:35:32;9.10;99.90
1083;DHT22;530;51.448;7.238;2024-03-23T11:38:14;9.50;99.90
1083;DHT22;530;51.448;7.238;2024-03-23T11:40:52;9.70;99.90
1083;DHT22;530;51.448;7.238;2024-03-23T11:43:20;10.00;99.90
1083;DHT22;530;51.448;7.238;2024-03-23T11:45:51;10.20;99.90
1083;DHT22;530;51.448;7.238;2024-03-23T11:48:20;10.30;99.90
1083;DHT22;530;51.448;7.238;2024-03-23T11:50:56;10.40;99.90
1083;DHT22;530;51.448;7.238;2024-03-23T11:53:25;10.60;99.90
1083;DHT22;530;51.448;7.238;2024-03-23T11:55:58;10.70;99.90
1083;DHT22;530;51.448;7.238;2024-03-23T11:58:26;10.90;99.90
1083;DHT22;530;51.448;7.238;2024-03-23T12:01:04;11.10;99.90
1083;DHT22;530;51.448;7.238;2024-03-23T12:03:31;10.80;99.90
1083;DHT22;530;51.448;7.238;2024-03-23T12:06:03;10.90;99.90
1083;DHT22;530;51.448;7.238;2024-03-23T12:08:30;11.00;99.90
1083;DHT22;530;51.448;7.238;2024-03-23T12:11:17;11.20;99.90
1083;DHT22;530;51.448;7.238;2024-03-23T12:13:44;11.30;99.90
1083;DHT22;530;51.448;7.238;2024-03-23T12:18:38;11.50;99.90
1083;DHT22;530;51.448;7.238;2024-03-23T12:21:05;11.50;99.90
1083;DHT22;530;51.448;7.238;2024-03-23T12:23:31;11.30;99.90
1083;DHT22;530;51.448;7.238;2024-03-23T12:25:57;11.10;99.90
1083;DHT22;530;51.448;7.238;2024-03-23T12:28:23;10.80;99.90
1083;DHT22;530;51.448;7.238;2024-03-23T12:30:49;10.60;99.90
1083;DHT22;530;51.448;7.238;2024-03-23T12:33:15;10.40;99.90
1083;DHT22;530;51.448;7.238;2024-03-23T12:35:40;10.00;99.90
1083;DHT22;530;51.448;7.238;2024-03-23T12:38:06;9.90;99.90
1083;DHT22;530;51.448;7.238;2024-03-23T12:40:32;9.80;99.90
1083;DHT22;530;51.448;7.238;2024-03-23T12:42:58;9.80;99.90
1083;DHT22;530;51.448;7.238;2024-03-23T12:45:24;9.80;99.90
1083;DHT22;530;51.448;7.238;2024-03-23T12:47:49;9.60;99.90
1083;DHT22;530;51.448;7.238;2024-03-23T12:50:18;9.80;99.90
1083;DHT22;530;51.448;7.238;2024-03-23T12:52:43;10.00;99.90
1083;DHT22;530;51.448;7.238;2024-03-23T12:55:10;10.10;99.90
1083;DHT22;530;51.448;7.238;2024-03-23T12:57:36;10.20;99.90
1083;DHT22;530;51.448;7.238;2024-03-23T13:00:02;10.20;99.90
1083;DHT22;530;51.448;7.238;2024-03-23T13:02:29;10.40;99.90
1083;DHT22;530;51.448;7.238;2024-03-23T13:04:55;10.60;99.90
1083;DHT22;530;51.448;7.238;2024-03-23T13:07:22;10.70;99.90
1083;DHT22;530;51.448;7.238;2024-03-23T13:09:52;10.80;99.90
1083;DHT22;530;51.448;7.238;2024-03-23T13:12:19;10.90;99.90
1083;DHT22;530;51.448;7.238;2024-03-23T13:14:46;10.80;99.90
1083;DHT22;530;51.448;7.238;2024-03-23T13:17:11;10.80;99.90
1083;DHT22;530;51.448;7.238;2024-03-23T13:19:37;10.60;99.90
1083;DHT22;530;51.448;7.238;2024-03-23T13:22:03;10.40;99.90
1083;DHT22;530;51.448;7.238;2024-03-23T13:24:30;10.20;99.90
1083;DHT22;530;51.448;7.238;2024-03-23T13:26:56;10.00;99.90
1083;DHT22;530;51.448;7.238;2024-03-23T13:29:23;9.80;99.90
1083;DHT22;530;51.448;7.238;2024-03-23T13:31:50;9.40;99.90
1083;DHT22;530;51.448;7.238;2024-03-23T13:34:16;9.20;99.90
1083;DHT22;530;51.448;7.238;2024-03-23T13:36:43;9.30;99.90
1083;DHT22;530;51.448;7.238;2024-03-23T13:39:09;9.50;99.90
1083;DHT22;530;51.448;7.238;2024-03-23T13:41:38;9.50;99.90
1083;DHT22;530;51.448;7.238;2024-03-23T13:44:04;9.60;99.90
1083;DHT22;530;51.448;7.238;2024-03-23T13:46:30;9.70;99.90
1083;DHT22;530;51.448;7.238;2024-03-23T13:48:56;9.80;99.90
1083;DHT22;530;51.448;7.238;2024-03-23T13:51:25;9.90;99.90
1083;DHT22;530;51.448;7.238;2024-03-23T13:53:53;9.80;99.90
1083;DHT22;530;51.448;7.238;2024-03-23T13:56:20;9.90;99.90
1083;DHT22;530;51.448;7.238;2024-03-23T13:58:46;9.80;99.90
1083;DHT22;530;51.448;7.238;2024-03-23T14:01:16;9.90;99.90
1083;DHT22;530;51.448;7.238;2024-03-23T14:03:43;10.10;99.90
1083;DHT22;530;51.448;7.238;2024-03-23T14:06:09;10.10;99.90
1083;DHT22;530;51.448;7.238;2024-03-23T14:08:36;10.00;99.90
1083;DHT22;530;51.448;7.238;2024-03-23T14:11:05;10.00;99.90
1083;DHT22;530;51.448;7.238;2024-03-23T14:13:31;10.00;99.90
1083;DHT22;530;51.448;7.238;2024-03-23T14:15:57;10.10;99.90
1083;DHT22;530;51.448;7.238;2024-03-23T14:18:23;10.00;99.90
1083;DHT22;530;51.448;7.238;2024-03-23T14:20:50;10.10;99.90
1083;DHT22;530;51.448;7.238;2024-03-23T14:23:16;10.20;99.90
1083;DHT22;530;51.448;7.238;2024-03-23T14:25:42;10.30;99.90
1083;DHT22;530;51.448;7.238;2024-03-23T14:28:08;10.40;99.90
1083;DHT22;530;51.448;7.238;2024-03-23T14:30:40;10.50;99.90
1083;DHT22;530;51.448;7.238;2024-03-23T14:33:06;10.60;99.90
1083;DHT22;530;51.448;7.238;2024-03-23T14:35:32;10.50;99.90
1083;DHT22;530;51.448;7.238;2024-03-23T14:37:58;10.50;99.90
1083;DHT22;530;51.448;7.238;2024-03-23T14:40:24;10.30;99.90
1083;DHT22;530;51.448;7.238;2024-03-23T14:42:53;10.30;99.90
1083;DHT22;530;51.448;7.238;2024-03-23T14:45:20;10.30;99.90
1083;DHT22;530;51.448;7.238;2024-03-23T14:47:46;10.40;99.90
1083;DHT22;530;51.448;7.238;2024-03-23T14:50:12;10.30;99.90
1083;DHT22;530;51.448;7.238;2024-03-23T14:52:42;10.10;99.90
1083;DHT22;530;51.448;7.238;2024-03-23T14:55:07;10.20;99.90
1083;DHT22;530;51.448;7.238;2024-03-23T14:57:34;10.20;99.90
1083;DHT22;530;51.448;7.238;2024-03-23T15:00:01;10.20;99.90
1083;DHT22;530;51.448;7.238;2024-03-23T15:02:26;10.20;99.90
1083;DHT22;530;51.448;7.238;2024-03-23T15:04:54;10.10;99.90
1083;DHT22;530;51.448;7.238;2024-03-23T15:07:20;10.20;99.90
1083;DHT22;530;51.448;7.238;2024-03-23T15:09:45;10.30;99.90
1083;DHT22;530;51.448;7.238;2024-03-23T15:12:11;10.30;99.90
1083;DHT22;530;51.448;7.238;2024-03-23T15:14:37;10.40;99.90
1083;DHT22;530;51.448;7.238;2024-03-23T15:17:03;10.30;99.90
1083;DHT22;530;51.448;7.238;2024-03-23T15:19:32;10.20;99.90
1083;DHT22;530;51.448;7.238;2024-03-23T15:21:58;10.20;99.90
1083;DHT22;530;51.448;7.238;2024-03-23T15:24:23;10.20;99.90
1083;DHT22;530;51.448;7.238;2024-03-23T15:26:49;10.20;99.90
1083;DHT22;530;51.448;7.238;2024-03-23T15:29:17;10.10;99.90
1083;DHT22;530;51.448;7.238;2024-03-23T15:31:43;10.10;99.90
1083;DHT22;530;51.448;7.238;2024-03-23T15:34:10;10.00;99.90
1083;DHT22;530;51.448;7.238;2024-03-23T15:36:37;10.00;99.90
1083;DHT22;530;51.448;7.238;2024-03-23T15:39:05;10.00;99.90
1083;DHT22;530;51.448;7.238;2024-03-23T15:41:32;10.00;99.90
1083;DHT22;530;51.448;7.238;2024-03-23T15:43:59;10.00;99.90
1083;DHT22;530;51.448;7.238;2024-03-23T15:46:25;10.00;99.90
1083;DHT22;530;51.448;7.238;2024-03-23T15:48:51;10.00;99.90
1083;DHT22;530;51.448;7.238;2024-03-23T15:51:16;10.00;99.90
1083;DHT22;530;51.448;7.238;2024-03-23T15:53:43;10.10;99.90
1083;DHT22;530;51.448;7.238;2024-03-23T15:56:09;10.00;99.90
1083;DHT22;530;51.448;7.238;2024-03-23T15:58:35;10.10;99.90
1083;DHT22;530;51.448;7.238;2024-03-23T16:01:03;10.00;99.90
1083;DHT22;530;51.448;7.238;2024-03-23T16:03:29;10.00;99.90
1083;DHT22;530;51.448;7.238;2024-03-23T16:05:58;10.00;99.90
1083;DHT22;530;51.448;7.238;2024-03-23T16:08:24;9.90;99.90
1083;DHT22;530;51.448;7.238;2024-03-23T16:10:50;10.00;99.90
1083;DHT22;530;51.448;7.238;2024-03-23T16:13:16;10.00;99.90
1083;DHT22;530;51.448;7.238;2024-03-23T16:15:43;10.00;99.90
1083;DHT22;530;51.448;7.238;2024-03-23T16:18:09;10.00;99.90
1083;DHT22;530;51.448;7.238;2024-03-23T16:20:35;10.00;99.90
1083;DHT22;530;51.448;7.238;2024-03-23T16:23:01;10.00;99.90
1083;DHT22;530;51.448;7.238;2024-03-23T16:25:26;9.90;99.90
1083;DHT22;530;51.448;7.238;2024-03-23T16:27:53;9.90;99.90
1083;DHT22;530;51.448;7.238;2024-03-23T16:30:19;9.80;99.90
1083;DHT22;530;51.448;7.238;2024-03-23T16:32:46;9.90;99.90
1083;DHT22;530;51.448;7.238;2024-03-23T16:35:13;9.80;99.90
1083;DHT22;530;51.448;7.238;2024-03-23T16:37:39;9.80;99.90
1083;DHT22;530;51.448;7.238;2024-03-23T16:40:06;9.60;99.90
1083;DHT22;530;51.448;7.238;2024-03-23T16:42:32;9.60;99.90
1083;DHT22;530;51.448;7.238;2024-03-23T16:44:58;9.60;99.90
1083;DHT22;530;51.448;7.238;2024-03-23T16:47:24;9.60;99.90
1083;DHT22;530;51.448;7.238;2024-03-23T16:49:49;9.60;99.90
1083;DHT22;530;51.448;7.238;2024-03-23T16:52:15;9.60;99.90
1083;DHT22;530;51.448;7.238;2024-03-23T16:54:41;9.50;99.90
1083;DHT22;530;51.448;7.238;2024-03-23T16:57:07;9.50;99.90
1083;DHT22;530;51.448;7.238;2024-03-23T16:59:33;9.30;99.90
1083;DHT22;530;51.448;7.238;2024-03-23T17:01:59;9.30;99.90
1083;DHT22;530;51.448;7.238;2024-03-23T17:04:25;9.20;99.90
1083;DHT22;530;51.448;7.238;2024-03-23T17:06:51;9.20;99.90
1083;DHT22;530;51.448;7.238;2024-03-23T17:09:17;9.00;99.90
1083;DHT22;530;51.448;7.238;2024-03-23T17:11:43;9.00;99.90
1083;DHT22;530;51.448;7.238;2024-03-23T17:14:12;8.90;99.90
1083;DHT22;530;51.448;7.238;2024-03-23T17:16:41;8.90;99.90
1083;DHT22;530;51.448;7.238;2024-03-23T17:19:06;8.80;99.90
1083;DHT22;530;51.448;7.238;2024-03-23T17:21:34;8.80;99.90
1083;DHT22;530;51.448;7.238;2024-03-23T17:24:00;8.80;99.90
1083;DHT22;530;51.448;7.238;2024-03-23T17:26:26;8.80;99.90
1083;DHT22;530;51.448;7.238;2024-03-23T17:28:51;8.60;99.90
1083;DHT22;530;51.448;7.238;2024-03-23T17:31:21;8.60;99.90
1083;DHT22;530;51.448;7.238;2024-03-23T17:33:50;8.60;99.90
1083;DHT22;530;51.448;7.238;2024-03-23T17:36:17;8.60;99.90